Tiempo atmosférico en la estación meteorológica de Albox, Almería (508 m.)



Fecha
DESCASC
Temp. máxima en grados centígrados (hora)
DESCASC
Temp. mínima en grados centígrados (hora)
DESCASC
Temp. media en grados centígrados
DESCASC
Racha de viento máxima en m/sg (hora)
DESCASC
Velocidad máxima media en intervalos de 10 minutos(hora)
DESCASC
Precipitaciones diarias en mm
DESCASC
Precipitaciones de 00:00 a 06:00 en mm
DESCASC
Precipitaciones de 06:00 a 12:00 en mm
DESCASC
Precipitaciones de 12:00 a 18:00 en mm
DESCASC
Precipitaciones de 18:00 a 24:00 en mm
DESCASC
19-04-2018 24.5 (14:40) 10.2 (06:50) 17.3 10.28 (16:10) 6.94 (12:30) 0 0 0 0 0
18-04-2018 25.2 (14:20) 11 (06:30) 18.1 9.72 (15:20) 5.83 (16:10) 0 0 0 0 0
17-04-2018 25.1 (15:40) 8.4 (07:20) 16.8 9.17 (16:20) 5.56 (14:50) 0 0 0 0 0
16-04-2018 23 (17:00) 11.6 (08:00) 17.3 16.39 (05:40) 11.94 (12:50) 0 0 0 0 0
15-04-2018 25 (16:20) 9.9 (00:00) 17.4 13.33 (10:30) 9.72 (10:30) 0 0 0 0 0
14-04-2018 22.8 (17:20) 8.2 (00:00) 15.5 12.78 (17:20) 8.33 (17:20) 0 0 0 0 0
13-04-2018 21 (15:40) 6.5 (00:00) 13.8 12.78 (01:50) 9.17 (02:00) 0.2 0.2 0 0 0
12-04-2018 19 (16:20) 8.7 (00:00) 13.8 20.83 (21:40) 12.78 (10:20) 0.2 0 0 0 0.2
11-04-2018 14.4 (17:10) 6.4 (00:00) 10.4 25.83 (15:10) 17.22 (14:30) 0 0 0 0 0
10-04-2018 17.9 (13:10) 7.5 (00:00) 12.7 18.89 (23:59) 12.5 (23:59) 3 0 0 0 3
09-04-2018 17.8 (16:20) 8.7 (00:00) 13.2 18.61 (16:20) 12.78 (16:20) 0 0 0 0 0
08-04-2018 18.6 (16:30) 7.5 (00:00) 13.1 17.22 (15:30) 11.67 (15:40) 0 0 0 0 0
07-04-2018 20 (13:10) 10 (00:00) 15 15.83 (19:30) 11.67 (19:30) 0.2 0 0 0.2 0
06-04-2018 24.1 (16:00) 11.3 (00:00) 17.7 7.78 (15:10) 4.72 (15:30) 0 0 0 0 0
05-04-2018 23.7 (15:30) 8.3 (00:00) 16 9.72 (13:00) 5.83 (16:30) 0 0 0 0 0
04-04-2018 22.6 (16:30) 11.6 (00:00) 17.1 16.39 (04:20) 10.83 (04:40) 0 0 0 0 0
03-04-2018 25.4 (15:20) 10.9 (00:00) 18.1 14.72 (09:30) 10.83 (09:30) 0 0 0 0 0
02-04-2018 23.8 (15:00) 9.3 (00:00) 16.5 7.78 (14:40) 5 (17:50) 0 0 0 0 0
01-04-2018 21.4 (15:30) 5.8 (00:00) 13.6 9.17 (15:50) 5.83 (00:20) 0 0 0 0 0
31-03-2018 18.4 (17:20) 7.5 (00:00) 12.9 21.39 (03:40) 14.17 (03:10) 0 0 0 0 0
30-03-2018 17.4 (12:50) 9 (00:00) 13.2 23.33 (17:20) 16.11 (17:20) 0 0 0 0 0
29-03-2018 27 (15:40) 14.3 (00:00) 20.7 13.89 (03:20) 10.56 (03:20) 0 0 0 0 0
28-03-2018 28.1 (15:40) 10.9 (00:00) 19.5 9.72 (22:40) 6.67 (22:40) 0 0 0 0 0
27-03-2018 26.5 (16:50) 10 (00:00) 18.3 11.39 (10:20) 8.61 (10:40) 0 0 0 0 0
26-03-2018 19.8 (17:00) 6.9 (00:00) 13.3 15 (10:20) 10 (10:40) 0 0 0 0 0
25-03-2018 16 (13:40) 7.1 (00:00) 11.5 21.11 (00:40) 12.5 (00:40) 0.2 0 0 0 0.2
24-03-2018 14.5 (00:40) 6.6 (00:00) 10.5 29.17 (06:10) 19.17 (13:40) 0 0 0 0 0
23-03-2018 17.4 (11:50) 8.6 (00:00) 13 21.94 (07:20) 15 (07:20) 0 0 0 0 0

Gráficas

Temp. máximas Temp. mínimas Temp. medias Precipitaciones Rachas de viento máximas Velocidades máximas media en intervalos de 10 minutos

Datos horarios

Fecha y hora oficial Temperatura (ºC) Velocidad del viento (km/h) Dirección del viento Racha (km/h) Dirección de racha Precipitación (mm) Presión (hPa) Tendencia (hPa) Humedad (%)
2018-04-21 23:00:00 16 4 Sudeste 14 Nordeste 0 -- -- 55
2018-04-21 22:00:00 17.1 9 Nordeste 24 Este 0 -- -- 51
2018-04-21 21:00:00 18.1 17 Nordeste 28 Nordeste 0 -- -- 50
2018-04-21 20:00:00 19.3 15 Este 26 Este 0 -- -- 48
2018-04-21 19:00:00 21.2 14 Sudeste 28 Este 0 -- -- 45
2018-04-21 18:00:00 23.8 18 Sudeste 38 Este 0 -- -- 40
2018-04-21 17:00:00 23.9 21 Este 38 Este 0 -- -- 38
2018-04-21 16:00:00 23.4 18 Este 35 Este 0 -- -- 40
2018-04-21 15:00:00 22.7 13 Este 32 Este 0 -- -- 41
2018-04-21 14:00:00 22.9 18 Este 34 Este 0 -- -- 40
2018-04-21 13:00:00 23.2 16 Este 32 Este 0 -- -- 39
2018-04-21 12:00:00 20.5 14 Este 26 Este 0 -- -- 46
2018-04-21 11:00:00 16.1 4 Sur 8 Este 0 -- -- 59
2018-04-21 10:00:00 13.8 0 Calma 5 Noroeste 0 -- -- 71
2018-04-21 09:00:00 12.4 3 Norte 8 Norte 0 -- -- 75
2018-04-21 08:00:00 11.4 5 Noroeste 9 Nordeste 0 -- -- 77
2018-04-21 07:00:00 11.6 2 Nordeste 7 Nordeste 0 -- -- 76
2018-04-21 06:00:00 11.9 5 Oeste 13 Sudoeste 0 -- -- 74
2018-04-21 05:00:00 11.9 5 Sudoeste 14 Sudoeste 0 -- -- 75
2018-04-21 04:00:00 12 4 Noroeste 10 Noroeste 0 -- -- 76
2018-04-21 03:00:00 12 6 Noroeste 12 Oeste 0 -- -- 78
2018-04-21 02:00:00 12.3 5 Oeste 8 Oeste 0 -- -- 80
2018-04-21 01:00:00 12.6 4 Oeste 7 Oeste 0 -- -- 78
2018-04-21 00:00:00 13.4 3 Oeste 8 Este 0 -- -- 75
2018-04-20 23:00:00 14.5 3 Sur 9 Este 0 -- -- 72
2018-04-20 22:00:00 15.6 8 Este 19 Este 0 -- -- 66
2018-04-20 21:00:00 16.6 14 Nordeste 31 Este 0 -- -- 61
2018-04-20 20:00:00 19 12 Este 23 Sudeste 0 -- -- 59
2018-04-20 19:00:00 21.2 14 Este 33 Este 0 -- -- 53
2018-04-20 18:00:00 22.3 15 Este 44 Este 0 -- -- 48
2018-04-20 17:00:00 22.7 24 Este 36 Este 0 -- -- 43
2018-04-20 16:00:00 22.3 19 Este 39 Este 0 -- -- 43
2018-04-20 15:00:00 20.4 16 Este 33 Este 0 -- -- 48
2018-04-20 14:00:00 18 21 Este 36 Nordeste 0 -- -- 54
2018-04-20 13:00:00 16.8 20 Este 36 Nordeste 0 -- -- 58
2018-04-20 12:00:00 16.2 22 Este 36 Este 0 -- -- 61
2018-04-20 11:00:00 15.5 15 Este 25 Este 0 -- -- 66
2018-04-20 10:00:00 13.8 3 Sur 8 Sudoeste 0 -- -- 75
2018-04-20 09:00:00 13 4 Sur 8 Sudeste 0 -- -- 78
2018-04-20 08:00:00 12.4 4 Sudeste 8 Este 0 -- -- 79
2018-04-20 07:00:00 12.6 4 Este 9 Este 0 -- -- 82
2018-04-20 06:00:00 12.7 2 Sudeste 5 Sur 0 -- -- 79
2018-04-20 05:00:00 12.9 0 Calma 5 Sudoeste 0 -- -- 79
2018-04-20 04:00:00 12.9 3 Sudoeste 5 Sudoeste 0 -- -- 82
2018-04-20 03:00:00 12.6 3 Oeste 5 Oeste 0 -- -- 84
2018-04-20 02:00:00 12.5 2 Noroeste 6 Oeste 0 -- -- 85
2018-04-20 01:00:00 12.1 3 Oeste 8 Sudeste 0 -- -- 86
2018-04-20 00:00:00 12.7 2 Sur 6 Sudeste 0 -- -- 84
2018-04-19 23:00:00 13.3 2 Sur 6 Este 0 -- -- 81
2018-04-19 22:00:00 14.3 2 Sudeste 8 Este 0 -- -- 76
2018-04-19 21:00:00 15.6 6 Este 16 Este 0 -- -- 72
2018-04-19 20:00:00 18.5 12 Este 22 Este 0 -- -- 63
2018-04-19 19:00:00 20.3 15 Este 25 Este 0 -- -- 57
2018-04-19 18:00:00 21.6 15 Sudeste 32 Este 0 -- -- 53
2018-04-19 17:00:00 23.1 21 Este 37 Este 0 -- -- 48
2018-04-19 16:00:00 23.8 18 Sudeste 35 Sudeste 0 -- -- 46
2018-04-19 15:00:00 24.3 18 Sudeste 36 Sudeste 0 -- -- 42
2018-04-19 14:00:00 24 15 Sudeste 34 Este 0 -- -- 40
2018-04-19 13:00:00 23 21 Este 36 Este 0 -- -- 37
2018-04-19 12:00:00 22.3 15 Este 29 Este 0 -- -- 38
2018-04-19 11:00:00 20.1 12 Sudeste 22 Este 0 -- -- 42
2018-04-19 10:00:00 15.9 6 Sur 10 Sudeste 0 -- -- 49
2018-04-19 09:00:00 14 3 Nordeste 10 Noroeste 0 -- -- 56
2018-04-19 08:00:00 11.1 8 Noroeste 11 Noroeste 0 -- -- 62
2018-04-19 07:00:00 10.3 8 Norte 10 Norte 0 -- -- 64
2018-04-19 06:00:00 10.8 6 Noroeste 9 Noroeste 0 -- -- 61
2018-04-19 05:00:00 10.6 5 Oeste 13 Noroeste 0 -- -- 61
2018-04-19 04:00:00 12.3 11 Noroeste 13 Noroeste 0 -- -- 55
2018-04-19 03:00:00 12.4 4 Norte 12 Noroeste 0 -- -- 55
2018-04-19 02:00:00 12 9 Noroeste 12 Noroeste 0 -- -- 60
2018-04-19 01:00:00 12.5 9 Noroeste 13 Noroeste 0 -- -- 59
2018-04-19 00:00:00 13.3 5 Noroeste 10 Noroeste 0 -- -- 56
2018-04-18 23:00:00 14 5 Nordeste 7 Este 0 -- -- 54
2018-04-18 22:00:00 15.3 5 Este 7 Este 0 -- -- 50
2018-04-18 21:00:00 17.5 6 Sudeste 15 Sudeste 0 -- -- 44
2018-04-18 20:00:00 20.7 9 Sudeste 21 Sudeste 0 -- -- 38
2018-04-18 19:00:00 22.6 12 Sudeste 27 Sudeste 0 -- -- 36
2018-04-18 18:00:00 23.6 15 Sudeste 32 Este 0 -- -- 35
2018-04-18 17:00:00 24.2 16 Sudeste 32 Sudeste 0 -- -- 33
2018-04-18 16:00:00 24.8 19 Sudeste 35 Sudeste 0 -- -- 32
2018-04-18 15:00:00 25.2 18 Sudeste 31 Este 0 -- -- 30
2018-04-18 14:00:00 25.1 16 Sudeste 33 Sudeste 0 -- -- 33
2018-04-18 13:00:00 24.1 13 Este 28 Este 0 -- -- 36
2018-04-18 12:00:00 23 13 Este 27 Este 0 -- -- 36
2018-04-18 11:00:00 19.7 7 Sudeste 14 Sudeste 0 -- -- 45
2018-04-18 10:00:00 16.1 5 Sur 9 Sur 0 -- -- 53
2018-04-18 09:00:00 12.9 3 Sudoeste 14 Noroeste 0 -- -- 64
2018-04-18 08:00:00 11.2 11 Noroeste 14 Noroeste 0 -- -- 68
2018-04-18 07:00:00 11.1 10 Noroeste 14 Noroeste 0 -- -- 68
2018-04-18 06:00:00 11.3 7 Norte 10 Noroeste 0 -- -- 67
2018-04-18 05:00:00 11.6 8 Norte 10 Norte 0 -- -- 67
2018-04-18 04:00:00 11.9 7 Norte 13 Norte 0 -- -- 65
2018-04-18 03:00:00 12.1 6 Norte 11 Norte 0 -- -- 65
2018-04-18 02:00:00 12.7 6 Norte 9 Noroeste 0 -- -- 64
2018-04-18 01:00:00 13.1 3 Noroeste 5 Noroeste 0 -- -- 62
2018-04-18 00:00:00 13.5 2 Noroeste 7 Noroeste 0 -- -- 59
2018-04-17 23:00:00 14.2 3 Oeste 5 Oeste 0 -- -- 56
2018-04-17 22:00:00 14.6 3 Noroeste 9 Este 0 -- -- 55
2018-04-17 21:00:00 16.4 5 Este 18 Este 0 -- -- 49
2018-04-17 20:00:00 19.3 11 Este 26 Este 0 -- -- 43
2018-04-17 19:00:00 21.2 17 Este 30 Este 0 -- -- 39
2018-04-17 18:00:00 23.1 15 Sudeste 31 Este 0 -- -- 36
2018-04-17 17:00:00 23.6 19 Este 33 Este 0 -- -- 35
2018-04-17 16:00:00 25 17 Sudeste 33 Este 0 -- -- 34
2018-04-17 15:00:00 24.9 18 Sudeste 31 Sudeste 0 -- -- 34
2018-04-17 14:00:00 24 9 Sur 22 Este 0 -- -- 31
2018-04-17 13:00:00 22.2 8 Sur 20 Este 0 -- -- 33
2018-04-17 12:00:00 21.7 4 Sur 17 Este 0 -- -- 34
2018-04-17 11:00:00 18.7 3 Nordeste 10 Sudoeste 0 -- -- 39
2018-04-17 10:00:00 14.7 2 Sudoeste 5 Oeste 0 -- -- 50
2018-04-17 09:00:00 10.9 4 Sudoeste 8 Oeste 0 -- -- 60
2018-04-17 08:00:00 8.8 5 Oeste 8 Noroeste 0 -- -- 67
2018-04-17 07:00:00 8.7 5 Oeste 14 Noroeste 0 -- -- 67
2018-04-17 06:00:00 10 8 Noroeste 10 Noroeste 0 -- -- 63
2018-04-17 05:00:00 10 6 Noroeste 12 Noroeste 0 -- -- 64
2018-04-17 04:00:00 10 7 Noroeste 10 Noroeste 0 -- -- 62
2018-04-17 03:00:00 10.9 7 Norte 13 Noroeste 0 -- -- 59
2018-04-17 02:00:00 11.2 4 Oeste 9 Oeste 0 -- -- 59
2018-04-17 01:00:00 12.1 5 Noroeste 20 Sudoeste 0 -- -- 57
2018-04-17 00:00:00 13.5 16 Oeste 27 Sudoeste 0 -- -- 53
2018-04-16 23:00:00 14.4 15 Oeste 28 Oeste 0 -- -- 52
2018-04-16 22:00:00 15.6 19 Oeste 40 Oeste 0 -- -- 47
2018-04-16 21:00:00 17 28 Oeste 39 Oeste 0 -- -- 40
2018-04-16 20:00:00 19.9 21 Oeste 45 Oeste 0 -- -- 32
2018-04-16 19:00:00 21.4 28 Oeste 45 Oeste 0 -- -- 30
2018-04-16 18:00:00 22.5 28 Oeste 43 Oeste 0 -- -- 28
2018-04-16 17:00:00 23 26 Oeste 46 Oeste 0 -- -- 26
2018-04-16 16:00:00 22.9 26 Oeste 40 Oeste 0 -- -- 28
2018-04-16 15:00:00 22 20 Oeste 45 Oeste 0 -- -- 29
2018-04-16 14:00:00 19.5 30 Oeste 53 Oeste 0 -- -- 33
2018-04-16 13:00:00 18.1 40 Oeste 58 Noroeste 0 -- -- 37
2018-04-16 12:00:00 17.2 30 Oeste 56 Oeste 0 -- -- 41
2018-04-16 11:00:00 15.3 40 Oeste 54 Oeste 0 -- -- 47
2018-04-16 10:00:00 13.6 30 Oeste 53 Oeste 0 -- -- 55
2018-04-16 09:00:00 13 31 Oeste 47 Sudoeste 0 -- -- 59
2018-04-16 08:00:00 11.6 14 Sudoeste 41 Oeste 0 -- -- 74
2018-04-16 07:00:00 12.7 25 Oeste 41 Noroeste 0 -- -- 69
2018-04-16 06:00:00 13.2 30 Noroeste 59 Oeste 0 -- -- 62
2018-04-16 05:00:00 14.8 28 Oeste 46 Oeste 0 -- -- 63
2018-04-16 04:00:00 14.9 17 Oeste 32 Oeste 0 -- -- 65
2018-04-16 03:00:00 15.1 16 Oeste 30 Sudoeste 0 -- -- 65
2018-04-16 02:00:00 14.2 11 Oeste 21 Oeste 0 -- -- 67
2018-04-16 01:00:00 15 15 Sudoeste 31 Oeste 0 -- -- 65
2018-04-16 00:00:00 15.6 22 Oeste 30 Sudoeste 0 -- -- 63
2018-04-15 23:00:00 16.1 17 Oeste 41 Oeste 0 -- -- 60
2018-04-15 22:00:00 17.2 30 Oeste 41 Oeste 0 -- -- 56
2018-04-15 21:00:00 17.9 24 Sudoeste 36 Oeste 0 -- -- 54
2018-04-15 20:00:00 21 28 Oeste 48 Oeste 0 -- -- 44
2018-04-15 19:00:00 22.5 33 Oeste 47 Oeste 0 -- -- 40
2018-04-15 18:00:00 22.1 30 Oeste 42 Oeste 0 -- -- 37
2018-04-15 17:00:00 23.1 27 Oeste 46 Oeste 0 -- -- 32
2018-04-15 16:00:00 24.8 31 Oeste 46 Sudoeste 0 -- -- 25
2018-04-15 15:00:00 23.9 22 Oeste 39 Oeste 0 -- -- 30
2018-04-15 14:00:00 22.5 23 Oeste 35 Oeste 0 -- -- 34
2018-04-15 13:00:00 19.9 25 Oeste 42 Oeste 0 -- -- 39
2018-04-15 12:00:00 19 24 Oeste 40 Noroeste 0 -- -- 45
2018-04-15 11:00:00 16.6 28 Oeste 48 Oeste 0 -- -- 53
2018-04-15 10:00:00 14.5 29 Oeste 41 Oeste 0 -- -- 59
2018-04-15 09:00:00 12.9 23 Noroeste 37 Oeste 0 -- -- 65
2018-04-15 08:00:00 11.3 18 Oeste 27 Sudoeste 0 -- -- 72
2018-04-15 07:00:00 11.5 6 Oeste 21 Sudoeste 0 -- -- 71
2018-04-15 06:00:00 12.2 17 Oeste 29 Sudoeste 0 -- -- 67
2018-04-15 05:00:00 12 14 Oeste 26 Sudoeste 0 -- -- 67
2018-04-15 04:00:00 9.9 6 Sudoeste 11 Sudeste 0 -- -- 77
2018-04-15 03:00:00 11 6 Sudeste 19 Oeste 0 -- -- 68
2018-04-15 02:00:00 11.8 3 Sudeste 14 Sudoeste 0 -- -- 65
2018-04-15 01:00:00 12.9 12 Sudoeste 15 Sudoeste 0 -- -- 57
2018-04-15 00:00:00 14.1 11 Oeste 20 Oeste 0 -- -- 54
2018-04-14 23:00:00 13.9 13 Oeste 21 Sudoeste 0 -- -- 51
2018-04-14 22:00:00 14.9 3 Noroeste 5 Norte 0 -- -- 47
2018-04-14 21:00:00 15.8 5 Nordeste 19 Este 0 -- -- 46
2018-04-14 20:00:00 18.9 14 Este 26 Este 0 -- -- 41
2018-04-14 19:00:00 21.5 16 Norte 36 Noroeste 0 -- -- 28
2018-04-14 18:00:00 22.1 26 Noroeste 46 Oeste 0 -- -- 28
2018-04-14 17:00:00 21.2 26 Noroeste 41 Oeste 0 -- -- 32
2018-04-14 16:00:00 22.6 14 Noroeste 40 Noroeste 0 -- -- 29
2018-04-14 15:00:00 21.8 14 Noroeste 33 Oeste 0 -- -- 27
2018-04-14 14:00:00 20.1 18 Noroeste 39 Noroeste 0 -- -- 32
2018-04-14 13:00:00 18.7 17 Noroeste 34 Oeste 0 -- -- 33
2018-04-14 12:00:00 17.4 19 Noroeste 30 Oeste 0 -- -- 43
2018-04-14 11:00:00 15.7 14 Oeste 26 Oeste 0 -- -- 47
2018-04-14 10:00:00 12.8 10 Oeste 18 Sudoeste 0 -- -- 57
2018-04-14 09:00:00 9.6 3 Sudoeste 12 Oeste 0 -- -- 69
2018-04-14 08:00:00 8.7 9 Oeste 14 Oeste 0 -- -- 71
2018-04-14 07:00:00 9 0 Calma 9 Sudoeste 0 -- -- 70
2018-04-14 06:00:00 9.4 12 Oeste 19 Oeste 0 -- -- 69
2018-04-14 05:00:00 8.3 8 Oeste 15 Oeste 0 -- -- 71
2018-04-14 04:00:00 8.5 7 Oeste 11 Oeste 0 -- -- 71
2018-04-14 03:00:00 8.8 9 Noroeste 13 Noroeste 0 -- -- 68
2018-04-14 02:00:00 8.2 4 Noroeste 8 Nordeste 0 -- -- 69
2018-04-14 01:00:00 9.6 8 Oeste 9 Oeste 0 -- -- 65
2018-04-14 00:00:00 10.7 4 Oeste 9 Nordeste 0 -- -- 59
2018-04-13 23:00:00 11.7 8 Nordeste 20 Nordeste 0 -- -- 57
2018-04-13 22:00:00 12.4 11 Nordeste 24 Nordeste 0 -- -- 54
2018-04-13 21:00:00 13 13 Nordeste 22 Este 0 -- -- 51
2018-04-13 20:00:00 14.5 14 Este 28 Este 0 -- -- 46
2018-04-13 19:00:00 16.4 14 Este 33 Este 0 -- -- 43
2018-04-13 18:00:00 16.1 23 Este 37 Este 0 -- -- 42
2018-04-13 17:00:00 17.4 19 Sudeste 34 Este 0 -- -- 41
2018-04-13 16:00:00 20.9 18 Sudeste 37 Este 0 -- -- 35
2018-04-13 15:00:00 19.9 11 Sudeste 25 Este 0 -- -- 30
2018-04-13 14:00:00 19.1 8 Sudeste 27 Sudoeste 0 -- -- 33
2018-04-13 13:00:00 17.5 8 Sudeste 22 Este 0 -- -- 37
2018-04-13 12:00:00 14.6 4 Norte 18 Oeste 0 -- -- 44
2018-04-13 11:00:00 13.4 10 Oeste 18 Oeste 0 -- -- 49
2018-04-13 10:00:00 10.4 9 Sudoeste 17 Oeste 0 -- -- 60
2018-04-13 09:00:00 7 9 Oeste 13 Oeste 0 -- -- 73
2018-04-13 08:00:00 6.9 6 Noroeste 19 Noroeste 0 -- -- 72
2018-04-13 07:00:00 7.5 11 Oeste 22 Oeste 0 -- -- 70
2018-04-13 06:00:00 8.4 19 Oeste 39 Sudoeste 0 -- -- 67
2018-04-13 05:00:00 8.8 18 Oeste 44 Oeste 0 -- -- 64
2018-04-13 04:00:00 9.3 30 Oeste 42 Oeste 0 -- -- 59
2018-04-13 03:00:00 9.9 23 Oeste 40 Oeste 0 -- -- 53
2018-04-13 02:00:00 9.7 33 Oeste 46 Oeste 0 -- -- 61
2018-04-13 01:00:00 9.4 20 Oeste 30 Oeste 0.2 -- -- 68
2018-04-13 00:00:00 9 13 Norte 22 Norte 0 -- -- 76
2018-04-12 23:00:00 8.9 16 Oeste 51 Oeste 0 -- -- 74
2018-04-12 22:00:00 10.3 33 Oeste 75 Noroeste 0 -- -- 64
2018-04-12 21:00:00 13.5 13 Sudeste 32 Sudeste 0 -- -- 54
2018-04-12 20:00:00 13.8 6 Nordeste 12 Norte 0 -- -- 60
2018-04-12 19:00:00 14.4 6 Noroeste 22 Oeste 0.2 -- -- 62
2018-04-12 18:00:00 15.6 15 Oeste 24 Oeste 0 -- -- 47
2018-04-12 17:00:00 17.8 11 Sudeste 23 Este 0 -- -- 37
2018-04-12 16:00:00 17.9 9 Oeste 27 Sudoeste 0 -- -- 36
2018-04-12 15:00:00 16.8 19 Oeste 35 Oeste 0 -- -- 40
2018-04-12 14:00:00 15.5 25 Noroeste 47 Oeste 0 -- -- 43
2018-04-12 13:00:00 15.9 25 Noroeste 49 Sudoeste 0 -- -- 41
2018-04-12 12:00:00 14.4 37 Oeste 65 Oeste 0 -- -- 41
2018-04-12 11:00:00 12.4 43 Oeste 63 Oeste 0 -- -- 48
2018-04-12 10:00:00 11.1 40 Oeste 55 Sudoeste 0 -- -- 50
2018-04-12 09:00:00 10.1 30 Oeste 47 Oeste 0 -- -- 53
2018-04-12 08:00:00 8.9 22 Oeste 47 Oeste 0 -- -- 61
2018-04-12 07:00:00 9 22 Oeste 38 Oeste 0 -- -- 61
2018-04-12 06:00:00 8.8 15 Oeste 40 Noroeste 0 -- -- 61
2018-04-12 05:00:00 9.3 29 Oeste 43 Oeste 0 -- -- 62
2018-04-12 04:00:00 9.9 30 Oeste 50 Oeste 0 -- -- 59
2018-04-12 03:00:00 9.9 34 Oeste 51 Oeste 0 -- -- 59
2018-04-12 02:00:00 10.2 28 Oeste 48 Oeste 0 -- -- 56
2018-04-12 01:00:00 10.8 28 Oeste 53 Oeste 0 -- -- 47
2018-04-12 00:00:00 10.8 27 Oeste 42 Oeste 0 -- -- 47
2018-04-11 23:00:00 11.1 23 Oeste 52 Sudoeste 0 -- -- 47
2018-04-11 22:00:00 11.5 24 Oeste 46 Oeste 0 -- -- 46
2018-04-11 21:00:00 11.9 30 Oeste 53 Oeste 0 -- -- 42
2018-04-11 20:00:00 13.8 37 Oeste 74 Oeste 0 -- -- 37
2018-04-11 19:00:00 12.8 44 Oeste 75 Oeste 0 -- -- 39
2018-04-11 18:00:00 13.2 42 Oeste 91 Oeste 0 -- -- 37
2018-04-11 17:00:00 14.1 54 Oeste 83 Oeste 0 -- -- 36
2018-04-11 16:00:00 14.2 51 Oeste 93 Oeste 0 -- -- 40
2018-04-11 15:00:00 12.9 60 Oeste 88 Oeste 0 -- -- 47
2018-04-11 14:00:00 12.9 46 Oeste 77 Oeste 0 -- -- 49
2018-04-11 13:00:00 11.9 49 Oeste 75 Oeste 0 -- -- 48
2018-04-11 12:00:00 11 44 Oeste 67 Noroeste 0 -- -- 50
2018-04-11 11:00:00 9.3 43 Oeste 71 Oeste 0 -- -- 58
2018-04-11 10:00:00 8.1 50 Oeste 77 Oeste 0 -- -- 63
2018-04-11 09:00:00 6.9 43 Oeste 61 Oeste 0 -- -- 67
2018-04-11 08:00:00 7 37 Oeste 76 Oeste 0 -- -- 63
2018-04-11 07:00:00 6.9 49 Oeste 68 Oeste 0 -- -- 65
2018-04-11 06:00:00 6.8 36 Oeste 58 Oeste 0 -- -- 64
2018-04-11 05:00:00 6.6 44 Oeste 64 Oeste 0 -- -- 71
2018-04-11 04:00:00 6.7 43 Oeste 68 Oeste 0 -- -- 69
2018-04-11 03:00:00 6.5 35 Oeste 55 Oeste 0 -- -- 72
2018-04-11 02:00:00 6.8 36 Oeste 58 Oeste 0 -- -- 74
2018-04-11 01:00:00 7.3 38 Oeste 75 Noroeste 0 -- -- 72
2018-04-11 00:00:00 9.8 45 Oeste 68 Oeste 0 -- -- 65
2018-04-10 23:00:00 9.8 21 Oeste 53 Oeste 0.2 -- -- 81
2018-04-10 22:00:00 10.4 4 Nordeste 13 Sudeste 0.4 -- -- 91
2018-04-10 21:00:00 10.8 5 Nordeste 16 Norte 2.2 -- -- 89
2018-04-10 20:00:00 12 11 Norte 33 Noroeste 0.2 -- -- 81
2018-04-10 19:00:00 14.4 6 Oeste 15 Sudoeste 0 -- -- 55
2018-04-10 18:00:00 15.8 6 Sudoeste 28 Sur 0 -- -- 46
2018-04-10 17:00:00 16.5 8 Este 23 Este 0 -- -- 41
2018-04-10 16:00:00 16.5 15 Noroeste 31 Oeste 0 -- -- 40
2018-04-10 15:00:00 17.7 22 Noroeste 35 Oeste 0 -- -- 38
2018-04-10 14:00:00 17.5 15 Oeste 28 Oeste 0 -- -- 34
2018-04-10 13:00:00 17.6 5 Norte 24 Sudoeste 0 -- -- 33
2018-04-10 12:00:00 16.8 6 Sudoeste 22 Oeste 0 -- -- 35
2018-04-10 11:00:00 14.1 6 Oeste 20 Oeste 0 -- -- 45
2018-04-10 10:00:00 11.1 10 Oeste 15 Sudoeste 0 -- -- 55
2018-04-10 09:00:00 8.8 5 Sudoeste 12 Noroeste 0 -- -- 62
2018-04-10 08:00:00 7.5 6 Oeste 28 Oeste 0 -- -- 65
2018-04-10 07:00:00 8.2 14 Oeste 31 Oeste 0 -- -- 65
2018-04-10 06:00:00 8.5 21 Noroeste 29 Noroeste 0 -- -- 64
2018-04-10 05:00:00 8 9 Oeste 23 Oeste 0 -- -- 64
2018-04-10 04:00:00 9.6 15 Oeste 26 Oeste 0 -- -- 57
2018-04-10 03:00:00 10.1 12 Noroeste 24 Oeste 0 -- -- 52
2018-04-10 02:00:00 10.9 18 Oeste 52 Sudoeste 0 -- -- 46
2018-04-10 01:00:00 11.1 33 Oeste 54 Oeste 0 -- -- 44
2018-04-10 00:00:00 10.2 22 Sudoeste 34 Sudoeste 0 -- -- 46
2018-04-09 23:00:00 10.5 24 Sudoeste 45 Oeste 0 -- -- 46
2018-04-09 22:00:00 11 30 Oeste 53 Oeste 0 -- -- 42
2018-04-09 21:00:00 11.8 27 Oeste 53 Oeste 0 -- -- 35
2018-04-09 20:00:00 14.2 31 Oeste 57 Oeste 0 -- -- 30
2018-04-09 19:00:00 16 35 Oeste 59 Oeste 0 -- -- 26
2018-04-09 18:00:00 16.9 38 Oeste 64 Sudoeste 0 -- -- 25
2018-04-09 17:00:00 17.6 39 Oeste 67 Oeste 0 -- -- 23
2018-04-09 16:00:00 17.5 40 Oeste 60 Oeste 0 -- -- 24
2018-04-09 15:00:00 15.6 31 Oeste 49 Oeste 0 -- -- 28
2018-04-09 14:00:00 16.1 15 Oeste 26 Oeste 0 -- -- 32
2018-04-09 13:00:00 15.4 11 Sudoeste 28 Oeste 0 -- -- 36
2018-04-09 12:00:00 12.6 22 Oeste 39 Oeste 0 -- -- 40
2018-04-09 11:00:00 11.6 31 Oeste 45 Oeste 0 -- -- 42
2018-04-09 10:00:00 10.6 26 Oeste 44 Oeste 0 -- -- 44
2018-04-09 09:00:00 9.4 28 Oeste 43 Oeste 0 -- -- 50
2018-04-09 08:00:00 8.7 23 Oeste 49 Oeste 0 -- -- 55
2018-04-09 07:00:00 9.2 34 Oeste 47 Oeste 0 -- -- 56
2018-04-09 06:00:00 9.8 26 Oeste 45 Noroeste 0 -- -- 61
2018-04-09 05:00:00 9.6 11 Oeste 22 Oeste 0 -- -- 59
2018-04-09 04:00:00 9.5 13 Oeste 24 Noroeste 0 -- -- 61
2018-04-09 03:00:00 11.2 19 Noroeste 42 Oeste 0 -- -- 55
2018-04-09 02:00:00 11.9 19 Oeste 34 Sudoeste 0 -- -- 51
2018-04-09 01:00:00 10.6 14 Oeste 26 Oeste 0 -- -- 54
2018-04-09 00:00:00 11.6 23 Oeste 34 Oeste 0 -- -- 52
2018-04-08 23:00:00 11.7 11 Noroeste 23 Noroeste 0 -- -- 51
2018-04-08 22:00:00 12.3 12 Oeste 32 Oeste 0 -- -- 50
2018-04-08 21:00:00 13.2 22 Oeste 45 Oeste 0 -- -- 49
2018-04-08 20:00:00 15.7 30 Oeste 50 Oeste 0 -- -- 42
2018-04-08 19:00:00 17.4 28 Oeste 57 Oeste 0 -- -- 38
2018-04-08 18:00:00 17.9 37 Oeste 56 Oeste 0 -- -- 37
2018-04-08 17:00:00 17.8 39 Oeste 59 Oeste 0 -- -- 40
2018-04-08 16:00:00 17.4 38 Oeste 62 Oeste 0 -- -- 41
2018-04-08 15:00:00 17.6 41 Oeste 58 Oeste 0 -- -- 39
2018-04-08 14:00:00 16.9 35 Oeste 54 Oeste 0 -- -- 40
2018-04-08 13:00:00 16.4 35 Oeste 54 Oeste 0 -- -- 41
2018-04-08 12:00:00 14.8 35 Oeste 57 Noroeste 0 -- -- 46
2018-04-08 11:00:00 13.5 33 Oeste 51 Oeste 0 -- -- 51
2018-04-08 10:00:00 11.5 29 Oeste 54 Oeste 0 -- -- 61
2018-04-08 09:00:00 10.5 24 Oeste 36 Oeste 0 -- -- 64
2018-04-08 08:00:00 8.8 20 Oeste 33 Oeste 0 -- -- 70
2018-04-08 07:00:00 8.8 21 Oeste 35 Oeste 0 -- -- 69
2018-04-08 06:00:00 9.1 14 Oeste 24 Oeste 0 -- -- 65
2018-04-08 05:00:00 8.1 11 Noroeste 17 Norte 0 -- -- 69
2018-04-08 04:00:00 7.8 6 Norte 12 Norte 0 -- -- 70
2018-04-08 03:00:00 8.5 8 Oeste 27 Sudoeste 0 -- -- 68
2018-04-08 02:00:00 9.4 22 Oeste 41 Noroeste 0 -- -- 64
2018-04-08 01:00:00 9.9 23 Oeste 34 Oeste 0 -- -- 64
2018-04-08 00:00:00 10.4 21 Oeste 34 Sudoeste 0 -- -- 64
2018-04-07 23:00:00 10.5 18 Oeste 36 Oeste 0 -- -- 66
2018-04-07 22:00:00 11 24 Oeste 38 Oeste 0 -- -- 65
2018-04-07 21:00:00 11.5 24 Oeste 50 Oeste 0 -- -- 64
2018-04-07 20:00:00 12.5 28 Oeste 57 Oeste 0 -- -- 60
2018-04-07 19:00:00 12.5 32 Oeste 49 Oeste 0 -- -- 63
2018-04-07 18:00:00 12.1 22 Oeste 32 Oeste 0 -- -- 74
2018-04-07 17:00:00 11.9 17 Noroeste 36 Sudoeste 0.2 -- -- 80
2018-04-07 16:00:00 15 18 Este 32 Este 0 -- -- 79
2018-04-07 15:00:00 17.9 17 Sudeste 26 Sudeste 0 -- -- 66
2018-04-07 14:00:00 18.9 8 Sudeste 17 Sudeste 0 -- -- 53
2018-04-07 13:00:00 19.5 8 Sudeste 17 Este 0 -- -- 54
2018-04-07 12:00:00 18.2 9 Este 23 Sudeste 0 -- -- 59
2018-04-07 11:00:00 15.6 9 Sudeste 18 Sudeste 0 -- -- 68
2018-04-07 10:00:00 14.1 4 Sudeste 10 Este 0 -- -- 67
2018-04-07 09:00:00 12.6 0 Calma 3 Noroeste 0 -- -- 73
2018-04-07 08:00:00 11.9 2 Norte 9 Noroeste 0 -- -- 73
2018-04-07 07:00:00 11.1 5 Norte 10 Nordeste 0 -- -- 77
2018-04-07 06:00:00 10.5 9 Norte 12 Nordeste 0 -- -- 80
2018-04-07 05:00:00 10.9 5 Norte 11 Norte 0 -- -- 77
2018-04-07 04:00:00 11.2 4 Noroeste 8 Nordeste 0 -- -- 79
2018-04-07 03:00:00 11.8 3 Nordeste 7 Nordeste 0 -- -- 74
2018-04-07 02:00:00 11.9 2 Norte 8 Nordeste 0 -- -- 77
2018-04-07 01:00:00 12.2 4 Norte 8 Norte 0 -- -- 79
2018-04-07 00:00:00 13.4 3 Oeste 10 Oeste 0 -- -- 75
2018-04-06 23:00:00 13.8 5 Oeste 10 Norte 0 -- -- 76
2018-04-06 22:00:00 14.6 8 Nordeste 22 Este 0 -- -- 74
2018-04-06 21:00:00 17.1 15 Este 23 Este 0 -- -- 62
2018-04-06 20:00:00 19.8 9 Sudeste 15 Sudeste 0 -- -- 52
2018-04-06 19:00:00 20.8 9 Este 23 Este 0 -- -- 49
2018-04-06 18:00:00 21.7 13 Este 27 Este 0 -- -- 43
2018-04-06 17:00:00 22.3 12 Este 24 Sudeste 0 -- -- 37
2018-04-06 16:00:00 24.1 13 Este 28 Este 0 -- -- 33
2018-04-06 15:00:00 23.6 14 Este 22 Este 0 -- -- 34
2018-04-06 14:00:00 22.4 10 Este 19 Nordeste 0 -- -- 33
2018-04-06 13:00:00 20 5 Este 26 Este 0 -- -- 35
2018-04-06 12:00:00 19.4 14 Este 23 Este 0 -- -- 34
2018-04-06 11:00:00 17.5 6 Sudeste 14 Sur 0 -- -- 34
2018-04-06 10:00:00 15.4 2 Sur 5 Sur 0 -- -- 38
2018-04-06 09:00:00 12.8 5 Noroeste 8 Noroeste 0 -- -- 45
2018-04-06 08:00:00 11.9 5 Noroeste 11 Noroeste 0 -- -- 44
2018-04-06 07:00:00 11.7 7 Noroeste 10 Noroeste 0 -- -- 42
2018-04-06 06:00:00 11.5 3 Norte 9 Norte 0 -- -- 41
2018-04-06 05:00:00 11.8 6 Nordeste 12 Nordeste 0 -- -- 40
2018-04-06 04:00:00 11.5 6 Norte 10 Norte 0 -- -- 42
2018-04-06 03:00:00 11.6 5 Noroeste 12 Noroeste 0 -- -- 52
2018-04-06 02:00:00 11.9 5 Norte 11 Norte 0 -- -- 52
2018-04-06 01:00:00 12.2 5 Noroeste 6 Noroeste 0 -- -- 52
2018-04-06 00:00:00 12.5 3 Noroeste 6 Nordeste 0 -- -- 50
2018-04-05 23:00:00 13.3 4 Este 8 Este 0 -- -- 48
2018-04-05 22:00:00 14.2 3 Este 8 Sudeste 0 -- -- 44
2018-04-05 21:00:00 15.4 6 Este 12 Este 0 -- -- 42
2018-04-05 20:00:00 17 7 Sudeste 17 Este 0 -- -- 39
2018-04-05 19:00:00 18.4 13 Sudeste 23 Sudeste 0 -- -- 36
2018-04-05 18:00:00 20 15 Sudeste 28 Sudeste 0 -- -- 33
2018-04-05 17:00:00 21.4 17 Este 32 Este 0 -- -- 31
2018-04-05 16:00:00 22.6 18 Sudeste 32 Sudeste 0 -- -- 29
2018-04-05 15:00:00 23.6 15 Este 29 Sudeste 0 -- -- 29
2018-04-05 14:00:00 22.7 15 Sudeste 29 Sudeste 0 -- -- 29
2018-04-05 13:00:00 21.8 15 Este 35 Sur 0 -- -- 31
2018-04-05 12:00:00 20.5 17 Este 27 Este 0 -- -- 33
2018-04-05 11:00:00 18.7 11 Este 20 Este 0 -- -- 36
2018-04-05 10:00:00 14.6 3 Sudeste 7 Sudeste 0 -- -- 45
2018-04-05 09:00:00 11.9 4 Norte 11 Norte 0 -- -- 50
2018-04-05 08:00:00 8.3 6 Norte 10 Norte 0 -- -- 58
2018-04-05 07:00:00 8.6 7 Noroeste 11 Noroeste 0 -- -- 61
2018-04-05 06:00:00 9.1 6 Noroeste 10 Oeste 0 -- -- 62
2018-04-05 05:00:00 9.2 7 Noroeste 12 Noroeste 0 -- -- 62
2018-04-05 04:00:00 9.6 7 Norte 17 Noroeste 0 -- -- 60
2018-04-05 03:00:00 10.5 4 Oeste 20 Noroeste 0 -- -- 58
2018-04-05 02:00:00 10.6 4 Sudoeste 16 Noroeste 0 -- -- 56
2018-04-05 01:00:00 12.1 14 Noroeste 18 Noroeste 0 -- -- 52
2018-04-05 00:00:00 13.4 9 Noroeste 22 Oeste 0 -- -- 46
2018-04-04 23:00:00 14 16 Oeste 21 Oeste 0 -- -- 43
2018-04-04 22:00:00 15 11 Noroeste 25 Oeste 0 -- -- 38
2018-04-04 21:00:00 16.3 17 Oeste 41 Oeste 0 -- -- 35
2018-04-04 20:00:00 18.7 31 Oeste 45 Oeste 0 -- -- 31
2018-04-04 19:00:00 20.5 32 Oeste 50 Oeste 0 -- -- 29
2018-04-04 18:00:00 21.8 33 Oeste 48 Oeste 0 -- -- 27
2018-04-04 17:00:00 22.1 34 Oeste 50 Oeste 0 -- -- 24
2018-04-04 16:00:00 21.9 35 Oeste 50 Oeste 0 -- -- 25
2018-04-04 15:00:00 21.5 27 Oeste 53 Oeste 0 -- -- 27
2018-04-04 14:00:00 20.6 30 Oeste 51 Oeste 0 -- -- 29
2018-04-04 13:00:00 19 37 Oeste 58 Oeste 0 -- -- 34
2018-04-04 12:00:00 17.8 34 Oeste 53 Oeste 0 -- -- 38
2018-04-04 11:00:00 16 35 Oeste 58 Oeste 0 -- -- 42
2018-04-04 10:00:00 15 24 Oeste 46 Oeste 0 -- -- 43
2018-04-04 09:00:00 12.9 24 Oeste 38 Oeste 0 -- -- 47
2018-04-04 08:00:00 11.7 16 Oeste 29 Oeste 0 -- -- 54
2018-04-04 07:00:00 11.9 17 Oeste 42 Oeste 0 -- -- 52
2018-04-04 06:00:00 11.9 22 Oeste 51 Oeste 0 -- -- 51
2018-04-04 05:00:00 12.2 33 Oeste 59 Oeste 0 -- -- 47
2018-04-04 04:00:00 12.9 31 Oeste 41 Oeste 0 -- -- 52
2018-04-04 03:00:00 13.1 9 Sudoeste 31 Noroeste 0 -- -- 53
2018-04-04 02:00:00 14.6 21 Oeste 32 Oeste 0 -- -- 50
2018-04-04 01:00:00 15 17 Noroeste 33 Noroeste 0 -- -- 56
2018-04-04 00:00:00 16.1 26 Noroeste 45 Oeste 0 -- -- 53
2018-04-03 23:00:00 16.9 21 Oeste 35 Oeste 0 -- -- 51
2018-04-03 22:00:00 17.9 19 Noroeste 40 Oeste 0 -- -- 43
2018-04-03 21:00:00 18.9 19 Oeste 42 Oeste -- -- -- 37
2018-04-03 20:00:00 21.2 29 Oeste 39 Oeste 0 -- -- 35
2018-04-03 19:00:00 23 23 Noroeste 42 Oeste 0 -- -- 34
2018-04-03 18:00:00 22.5 20 Oeste 33 Oeste 0 -- -- 36
2018-04-03 17:00:00 23.9 5 Sudeste 22 Este 0 -- -- 37
2018-04-03 16:00:00 23.1 15 Este 26 Este 0 -- -- 38
2018-04-03 15:00:00 25.3 15 Sudeste 28 Este 0 -- -- 34
2018-04-03 14:00:00 24.2 14 Sudeste 33 Sudeste 0 -- -- 36
2018-04-03 13:00:00 22.6 6 Sur 26 Sudoeste 0 -- -- 40
2018-04-03 12:00:00 20.7 15 Sudoeste 28 Oeste 0 -- -- 45
2018-04-03 11:00:00 18.5 9 Sudoeste 37 Oeste 0 -- -- 51
2018-04-03 10:00:00 15.5 25 Oeste 53 Oeste 0 -- -- 58
2018-04-03 09:00:00 14 20 Sudoeste 42 Oeste 0 -- -- 61
2018-04-03 08:00:00 14.1 30 Oeste 44 Oeste 0 -- -- 59
2018-04-03 07:00:00 13.6 20 Sudoeste 28 Oeste 0 -- -- 64
2018-04-03 06:00:00 13.3 17 Oeste 29 Sudoeste 0 -- -- 64
2018-04-03 05:00:00 12 3 Oeste 11 Oeste 0 -- -- 59
2018-04-03 04:00:00 12.1 3 Oeste 13 Oeste 0 -- -- 57
2018-04-03 03:00:00 11.3 6 Noroeste 10 Norte 0 -- -- 56
2018-04-03 02:00:00 11.1 5 Norte 7 Norte 0 -- -- 59
2018-04-03 01:00:00 11.2 0 Calma 8 Noroeste 0 -- -- 57
2018-04-03 00:00:00 11 5 Noroeste 9 Noroeste 0 -- -- 59
2018-04-02 23:00:00 12.1 2 Sur 6 Sur 0 -- -- 55
2018-04-02 22:00:00 12.9 3 Este 10 Este 0 -- -- 51
2018-04-02 21:00:00 14.5 7 Este 12 Este 0 -- -- 46
2018-04-02 20:00:00 16.9 8 Este 20 Sudeste 0 -- -- 39
2018-04-02 19:00:00 21 14 Sudeste 26 Este 0 -- -- 32
2018-04-02 18:00:00 22.1 18 Este 26 Este 0 -- -- 29
2018-04-02 17:00:00 20.8 12 Este 24 Sudeste 0 -- -- 29
2018-04-02 16:00:00 22.2 13 Sudeste 28 Este 0 -- -- 27
2018-04-02 15:00:00 23.8 14 Este 28 Este 0 -- -- 24
2018-04-02 14:00:00 21.4 8 Sudeste 16 Este 0 -- -- 26
2018-04-02 13:00:00 19 5 Sur 10 Sur 0 -- -- 28
2018-04-02 12:00:00 18.6 5 Sur 12 Sudeste 0 -- -- 27
2018-04-02 11:00:00 16 2 Este 8 Nordeste 0 -- -- 30
2018-04-02 10:00:00 11.9 0 Calma 14 Oeste 0 -- -- 40
2018-04-02 09:00:00 10 5 Sudoeste 8 Sudoeste 0 -- -- 44
2018-04-02 08:00:00 9.4 3 Oeste 11 Noroeste 0 -- -- 42
2018-04-02 07:00:00 9.3 8 Noroeste 10 Noroeste 0 -- -- 41
2018-04-02 06:00:00 10 8 Noroeste 12 Noroeste 0 -- -- 41
2018-04-02 05:00:00 10.2 9 Noroeste 10 Noroeste 0 -- -- 42
2018-04-02 04:00:00 9.9 5 Norte 6 Nordeste 0 -- -- 42
2018-04-02 03:00:00 10.1 3 Norte 9 Nordeste 0 -- -- 42
2018-04-02 02:00:00 10.3 4 Norte 10 Norte 0 -- -- 42
2018-04-02 01:00:00 10.4 8 Norte 13 Noroeste 0 -- -- 47
2018-04-02 00:00:00 10.7 10 Noroeste 13 Noroeste 0 -- -- 47
2018-04-01 23:00:00 11.5 8 Noroeste 10 Noroeste 0 -- -- 43
2018-04-01 22:00:00 11.8 3 Norte 5 Sudeste 0 -- -- 42
2018-04-01 21:00:00 12.9 2 Este 14 Sudeste 0 -- -- 39
2018-04-01 20:00:00 14.8 8 Sudeste 19 Sudeste 0 -- -- 38
2018-04-01 19:00:00 18.4 13 Este 29 Sudeste 0 -- -- 32
2018-04-01 18:00:00 19.8 16 Sudeste 30 Sudeste 0 -- -- 30
2018-04-01 17:00:00 20.6 14 Sudeste 31 Este 0 -- -- 27
2018-04-01 16:00:00 21.2 18 Este 33 Este 0 -- -- 26
2018-04-01 15:00:00 21.2 13 Sudeste 29 Sudeste 0 -- -- 26
2018-04-01 14:00:00 20.4 15 Este 31 Este 0 -- -- 28
2018-04-01 13:00:00 19.3 15 Este 28 Sudeste 0 -- -- 30
2018-04-01 12:00:00 18 16 Este 28 Sudeste 0 -- -- 31
2018-04-01 11:00:00 15.7 9 Este 17 Este 0 -- -- 38
2018-04-01 10:00:00 12 4 Sur 5 Sur 0 -- -- 46
2018-04-01 09:00:00 8.7 3 Noroeste 5 Noroeste 0 -- -- 52
2018-04-01 08:00:00 6.1 2 Norte 8 Norte 0 -- -- 58
2018-04-01 07:00:00 6.3 6 Norte 9 Nordeste 0 -- -- 57
2018-04-01 06:00:00 6.2 5 Noroeste 9 Noroeste 0 -- -- 61
2018-04-01 05:00:00 7.4 9 Norte 18 Noroeste 0 -- -- 59
2018-04-01 04:00:00 8.1 10 Noroeste 17 Noroeste 0 -- -- 57
2018-04-01 03:00:00 8.5 11 Noroeste 22 Oeste 0 -- -- 56
2018-04-01 02:00:00 9.6 15 Oeste 23 Oeste 0 -- -- 53
2018-04-01 01:00:00 10.6 20 Oeste 28 Oeste 0 -- -- 50
2018-04-01 00:00:00 10.7 19 Oeste 25 Oeste 0 -- -- 48
2018-03-31 23:00:00 10.9 14 Oeste 22 Oeste 0 -- -- 47
2018-03-31 22:00:00 11.5 14 Oeste 24 Noroeste 0 -- -- 44
2018-03-31 21:00:00 12.8 16 Noroeste 38 Oeste 0 -- -- 39
2018-03-31 20:00:00 14.9 26 Noroeste 46 Oeste 0 -- -- 34
2018-03-31 19:00:00 16.7 31 Oeste 48 Oeste 0 -- -- 31
2018-03-31 18:00:00 18 32 Oeste 47 Oeste 0 -- -- 25
2018-03-31 17:00:00 17.9 33 Oeste 52 Sudoeste 0 -- -- 26
2018-03-31 16:00:00 17.4 36 Oeste 58 Oeste 0 -- -- 29
2018-03-31 15:00:00 16.6 39 Oeste 59 Noroeste 0 -- -- 28
2018-03-31 14:00:00 14.7 39 Oeste 61 Oeste 0 -- -- 34
2018-03-31 13:00:00 14.4 39 Oeste 60 Oeste 0 -- -- 34
2018-03-31 12:00:00 12.8 40 Oeste 56 Oeste 0 -- -- 40
2018-03-31 11:00:00 10.8 36 Oeste 60 Oeste 0 -- -- 45
2018-03-31 10:00:00 9.3 22 Oeste 51 Oeste 0 -- -- 48
2018-03-31 09:00:00 8 35 Oeste 63 Oeste 0 -- -- 49
2018-03-31 08:00:00 7.7 35 Oeste 63 Oeste 0 -- -- 56
2018-03-31 07:00:00 8 35 Oeste 67 Oeste 0 -- -- 60
2018-03-31 06:00:00 8 37 Oeste 70 Sudoeste 0 -- -- 65
2018-03-31 05:00:00 7.5 29 Oeste 64 Oeste 0 -- -- 67
2018-03-31 04:00:00 10.6 37 Oeste 77 Sudoeste 0 -- -- 54
2018-03-31 03:00:00 10.6 40 Oeste 72 Oeste 0 -- -- 51
2018-03-31 02:00:00 10.6 38 Oeste 69 Oeste 0 -- -- 48
2018-03-31 01:00:00 9.6 13 Sudoeste 48 Oeste 0 -- -- 45
2018-03-31 00:00:00 10.9 42 Oeste 63 Sudoeste 0 -- -- 39
2018-03-30 23:00:00 10.3 19 Oeste 51 Oeste 0 -- -- 49
2018-03-30 22:00:00 10.4 31 Oeste 71 Oeste 0 -- -- 48
2018-03-30 21:00:00 11.3 37 Oeste 64 Oeste 0 -- -- 44
2018-03-30 20:00:00 12.2 40 Oeste 80 Oeste 0 -- -- 43
2018-03-30 19:00:00 14.3 39 Oeste 65 Oeste 0 -- -- 44
2018-03-30 18:00:00 15.1 40 Oeste 84 Oeste 0 -- -- 44
2018-03-30 17:00:00 16.7 48 Oeste 80 Oeste 0 -- -- 32
2018-03-30 16:00:00 16.7 39 Oeste 58 Oeste 0 -- -- 39
2018-03-30 15:00:00 15 35 Oeste 55 Oeste 0 -- -- 45
2018-03-30 14:00:00 17.1 36 Oeste 56 Oeste 0 -- -- 38
2018-03-30 13:00:00 16.1 31 Oeste 50 Oeste 0 -- -- 37
2018-03-30 12:00:00 15.7 35 Oeste 54 Oeste 0 -- -- 39
2018-03-30 11:00:00 14.1 17 Oeste 47 Oeste 0 -- -- 41
2018-03-30 10:00:00 11.4 34 Oeste 57 Oeste 0 -- -- 47
2018-03-30 09:00:00 9.9 26 Oeste 47 Oeste 0 -- -- 52
2018-03-30 08:00:00 9.2 28 Oeste 43 Oeste 0 -- -- 53
2018-03-30 07:00:00 9.5 27 Oeste 56 Oeste 0 -- -- 54
2018-03-30 06:00:00 9.7 36 Oeste 57 Oeste 0 -- -- 58
2018-03-30 05:00:00 10.4 32 Oeste 58 Oeste 0 -- -- 57
2018-03-30 04:00:00 11.2 42 Oeste 58 Oeste 0 -- -- 52
2018-03-30 03:00:00 12.1 33 Oeste 50 Oeste 0 -- -- 46
2018-03-30 02:00:00 12.7 26 Oeste 47 Oeste 0 -- -- 47
2018-03-30 01:00:00 13.5 28 Oeste 56 Oeste 0 -- -- 49
2018-03-30 00:00:00 14.3 28 Oeste 48 Oeste 0 -- -- 52
2018-03-29 23:00:00 15.2 23 Oeste 35 Oeste 0 -- -- 48
2018-03-29 22:00:00 16.2 25 Oeste 41 Oeste 0 -- -- 45
2018-03-29 21:00:00 18 30 Oeste 47 Oeste 0 -- -- 39
2018-03-29 20:00:00 21.4 14 Oeste 26 Oeste 0 -- -- 32
2018-03-29 19:00:00 22.3 9 Este 23 Este 0 -- -- 34
2018-03-29 18:00:00 23.5 14 Este 27 Este 0 -- -- 32
2018-03-29 17:00:00 25.2 17 Este 35 Este 0 -- -- 29
2018-03-29 16:00:00 26.3 19 Este 29 Este 0 -- -- 25
2018-03-29 15:00:00 25.6 12 Sudoeste 23 Sur 0 -- -- 22
2018-03-29 14:00:00 24.8 18 Sudoeste 36 Noroeste 0 -- -- 22
2018-03-29 13:00:00 21.3 28 Noroeste 42 Noroeste 0 -- -- 25
2018-03-29 12:00:00 21.4 24 Oeste 37 Oeste 0 -- -- 27
2018-03-29 11:00:00 19.4 17 Oeste 39 Oeste 0 -- -- 30
2018-03-29 10:00:00 16.9 24 Oeste 35 Oeste 0 -- -- 30
2018-03-29 09:00:00 15.1 24 Oeste 46 Oeste 0 -- -- 41
2018-03-29 08:00:00 14.5 32 Oeste 43 Oeste 0 -- -- 53
2018-03-29 07:00:00 15.6 26 Oeste 48 Oeste 0 -- -- 50
2018-03-29 06:00:00 15.3 20 Oeste 39 Oeste 0 -- -- 52
2018-03-29 05:00:00 15.5 18 Oeste 34 Oeste 0 -- -- 49
2018-03-29 04:00:00 16.4 29 Oeste 50 Oeste 0 -- -- 46
2018-03-29 03:00:00 16.6 28 Oeste 39 Sudoeste 0 -- -- 44
2018-03-29 02:00:00 16.7 17 Oeste 41 Oeste 0 -- -- 43
2018-03-29 01:00:00 17.2 20 Oeste 37 Oeste 0 -- -- 43
2018-03-29 00:00:00 17.3 14 Oeste 29 Oeste 0 -- -- 46
2018-03-28 23:00:00 18.3 18 Sudoeste 35 Oeste 0 -- -- 40
2018-03-28 22:00:00 19.7 22 Oeste 33 Sudoeste 0 -- -- 32
2018-03-28 21:00:00 21 20 Sudoeste 28 Oeste 0 -- -- 33
2018-03-28 20:00:00 23.6 7 Este 18 Este 0 -- -- 31
2018-03-28 19:00:00 26.3 13 Este 25 Sudeste 0 -- -- 28
2018-03-28 18:00:00 27.2 12 Este 26 Este 0 -- -- 28
2018-03-28 17:00:00 27.5 14 Este 31 Este 0 -- -- 28
2018-03-28 16:00:00 27.9 16 Este 27 Este 0 -- -- 27
2018-03-28 15:00:00 27.5 12 Sudeste 26 Este 0 -- -- 26
2018-03-28 14:00:00 26.9 10 Sudeste 21 Este 0 -- -- 27
2018-03-28 13:00:00 24.7 6 Sur 17 Sudoeste 0 -- -- 28
2018-03-28 12:00:00 22.6 5 Sudeste 15 Sudoeste 0 -- -- 31
2018-03-28 11:00:00 19.4 5 Sudoeste 12 Sudoeste 0 -- -- 40
2018-03-28 10:00:00 15.9 0 Calma 11 Noroeste 0 -- -- 47
2018-03-28 09:00:00 12.5 10 Noroeste 19 Noroeste 0 -- -- 55
2018-03-28 08:00:00 11.1 10 Noroeste 14 Noroeste 0 -- -- 59
2018-03-28 07:00:00 11.5 7 Noroeste 14 Noroeste 0 -- -- 58
2018-03-28 06:00:00 11.5 8 Noroeste 17 Noroeste 0 -- -- 57
2018-03-28 05:00:00 13.1 12 Noroeste 17 Noroeste 0 -- -- 53
2018-03-28 04:00:00 13.5 13 Noroeste 21 Noroeste 0 -- -- 51
2018-03-28 03:00:00 13 6 Oeste 19 Noroeste 0 -- -- 52
2018-03-28 02:00:00 14.4 13 Noroeste 23 Noroeste 0 -- -- 48
2018-03-28 01:00:00 14.6 9 Noroeste 17 Oeste 0 -- -- 47
2018-03-28 00:00:00 14.9 4 Noroeste 11 Oeste 0 -- -- 42
2018-03-27 23:00:00 16 6 Oeste 19 Sudoeste 0 -- -- 40
2018-03-27 22:00:00 17.2 10 Sudoeste 26 Oeste 0 -- -- 38
2018-03-27 21:00:00 18.7 8 Este 35 Oeste 0 -- -- 34
2018-03-27 20:00:00 22.6 23 Oeste 36 Oeste 0 -- -- 28
2018-03-27 19:00:00 24 7 Este 22 Oeste 0 -- -- 27
2018-03-27 18:00:00 25.9 17 Noroeste 32 Sudoeste 0 -- -- 25
2018-03-27 17:00:00 26.2 20 Oeste 36 Sudoeste 0 -- -- 26
2018-03-27 16:00:00 25.5 19 Oeste 41 Sudoeste 0 -- -- 28
2018-03-27 15:00:00 24.8 12 Sudoeste 28 Oeste 0 -- -- 29
2018-03-27 14:00:00 22.9 9 Oeste 32 Sudoeste 0 -- -- 31
2018-03-27 13:00:00 21.4 14 Oeste 31 Sudoeste 0 -- -- 33
2018-03-27 12:00:00 19.4 21 Oeste 32 Sudoeste 0 -- -- 35
2018-03-27 11:00:00 16.3 26 Sudoeste 41 Sudoeste 0 -- -- 39
2018-03-27 10:00:00 14.1 19 Sudoeste 26 Sudoeste 0 -- -- 41
2018-03-27 09:00:00 12 21 Oeste 39 Oeste 0 -- -- 48
2018-03-27 08:00:00 11 23 Oeste 35 Oeste 0 -- -- 52
2018-03-27 07:00:00 10.5 18 Oeste 28 Oeste 0 -- -- 55
2018-03-27 06:00:00 10.5 18 Oeste 27 Oeste 0 -- -- 56
2018-03-27 05:00:00 10 11 Sudoeste 19 Sudoeste 0 -- -- 58
2018-03-27 04:00:00 10 5 Norte 10 Norte 0 -- -- 58
2018-03-27 03:00:00 10.4 2 Norte 10 Norte 0 -- -- 57
2018-03-27 02:00:00 10.9 3 Sur 21 Noroeste 0 -- -- 54
2018-03-27 01:00:00 11.2 14 Oeste 24 Oeste 0 -- -- 54
2018-03-27 00:00:00 11.3 13 Oeste 20 Oeste 0 -- -- 51
2018-03-26 23:00:00 11.4 18 Oeste 24 Oeste 0 -- -- 49
2018-03-26 22:00:00 12.3 9 Oeste 30 Oeste 0 -- -- 45
2018-03-26 21:00:00 13.7 26 Oeste 46 Oeste 0 -- -- 41
2018-03-26 20:00:00 15.8 27 Oeste 41 Oeste 0 -- -- 36
2018-03-26 19:00:00 17.4 25 Oeste 43 Oeste 0 -- -- 31
2018-03-26 18:00:00 18.7 28 Noroeste 41 Oeste 0 -- -- 29
2018-03-26 17:00:00 19.8 27 Noroeste 45 Oeste 0 -- -- 27
2018-03-26 16:00:00 18.5 28 Noroeste 43 Noroeste 0 -- -- 29
2018-03-26 15:00:00 16.5 21 Oeste 49 Oeste 0 -- -- 33
2018-03-26 14:00:00 17.5 25 Oeste 46 Oeste 0 -- -- 34
2018-03-26 13:00:00 16.2 28 Noroeste 42 Noroeste 0 -- -- 36
2018-03-26 12:00:00 14.9 19 Oeste 50 Sudoeste 0 -- -- 38
2018-03-26 11:00:00 11.6 34 Sudoeste 54 Oeste 0 -- -- 49
2018-03-26 10:00:00 9.9 33 Oeste 47 Oeste 0 -- -- 55
2018-03-26 09:00:00 7.5 18 Sudoeste 31 Sudoeste 0 -- -- 65
2018-03-26 08:00:00 7.4 25 Oeste 40 Oeste 0 -- -- 66
2018-03-26 07:00:00 7.6 18 Sudoeste 46 Oeste 0 -- -- 66
2018-03-26 06:00:00 8 35 Oeste 47 Oeste 0 -- -- 65
2018-03-26 05:00:00 7.9 33 Oeste 45 Oeste 0 -- -- 68
2018-03-26 04:00:00 8.2 30 Oeste 39 Oeste 0 -- -- 66
2018-03-26 03:00:00 8.2 23 Oeste 35 Oeste 0 -- -- 68
2018-03-26 02:00:00 8.2 28 Oeste 42 Oeste 0 -- -- 70
2018-03-26 01:00:00 8.2 25 Oeste 44 Oeste 0 -- -- 67
2018-03-26 00:00:00 8.7 30 Oeste 44 Oeste 0 -- -- 63
2018-03-25 23:00:00 9.3 29 Oeste 41 Oeste 0 -- -- 57
2018-03-25 22:00:00 9.6 20 Oeste 30 Oeste 0 -- -- 53
2018-03-25 21:00:00 10.3 19 Noroeste 35 Noroeste 0 -- -- 54
2018-03-25 20:00:00 11.5 5 Nordeste 12 Sur 0 -- -- 64
2018-03-25 19:00:00 9.8 14 Oeste 46 Oeste 0.2 -- -- 72
2018-03-25 18:00:00 12.1 15 Noroeste 39 Noroeste 0 -- -- 58
2018-03-25 17:00:00 12.6 25 Noroeste 36 Sudoeste 0 -- -- 58
2018-03-25 16:00:00 11.9 22 Oeste 40 Sudoeste 0 -- -- 65
2018-03-25 15:00:00 14.3 32 Sudoeste 43 Sudoeste 0 -- -- 48
2018-03-25 14:00:00 15.3 19 Oeste 36 Oeste 0 -- -- 42
2018-03-25 13:00:00 14.2 28 Oeste 37 Oeste 0 -- -- 42
2018-03-25 12:00:00 11.5 27 Oeste 44 Oeste 0 -- -- 51
2018-03-25 11:00:00 8.8 27 Oeste 40 Oeste 0 -- -- 58
2018-03-25 10:00:00 7.6 19 Oeste 41 Oeste 0 -- -- 62
2018-03-25 09:00:00 7.2 20 Oeste 48 Oeste 0 -- -- 62
2018-03-25 08:00:00 7.3 26 Oeste 48 Oeste 0 -- -- 60
2018-03-25 07:00:00 8.4 15 Oeste 44 Oeste 0 -- -- 56
2018-03-25 06:00:00 8.5 28 Oeste 51 Oeste 0 -- -- 56
2018-03-25 05:00:00 8.5 27 Oeste 49 Oeste 0 -- -- 55
2018-03-25 03:00:00 9.3 24 Oeste 57 Noroeste 0 -- -- 53
2018-03-25 01:00:00 9.5 27 Oeste 76 Oeste 0 -- -- 52
2018-03-25 00:00:00 9.9 40 Oeste 63 Oeste 0 -- -- 50
2018-03-24 23:00:00 10.1 28 Oeste 56 Oeste 0 -- -- 48
2018-03-24 22:00:00 10.4 27 Oeste 66 Oeste 0 -- -- 45
2018-03-24 21:00:00 10.8 35 Oeste 58 Noroeste 0 -- -- 46
2018-03-24 20:00:00 10.8 27 Oeste 50 Oeste 0 -- -- 44
2018-03-24 19:00:00 10.8 30 Oeste 57 Oeste 0 -- -- 45
2018-03-24 18:00:00 12.1 30 Oeste 57 Oeste 0 -- -- 42
2018-03-24 17:00:00 12.4 41 Oeste 78 Oeste 0 -- -- 41
2018-03-24 16:00:00 13.5 46 Oeste 82 Oeste 0 -- -- 37
2018-03-24 15:00:00 13.9 54 Oeste 86 Oeste 0 -- -- 33
2018-03-24 14:00:00 12.7 55 Oeste 95 Oeste 0 -- -- 39
2018-03-24 13:00:00 12.1 59 Oeste 89 Oeste 0 -- -- 39
2018-03-24 12:00:00 11 53 Oeste 71 Oeste 0 -- -- 45
2018-03-24 11:00:00 9.1 46 Oeste 81 Oeste 0 -- -- 58
2018-03-24 10:00:00 7.7 49 Oeste 94 Oeste 0 -- -- 66
2018-03-24 09:00:00 7.5 51 Oeste 80 Oeste 0 -- -- 68
2018-03-24 08:00:00 7.4 55 Oeste 91 Oeste 0 -- -- 63
2018-03-24 07:00:00 8.1 44 Oeste 105 Oeste 0 -- -- 64
2018-03-24 06:00:00 9.3 64 Oeste 104 Oeste 0 -- -- 76
2018-03-24 05:00:00 13.3 45 Oeste 93 Oeste 0 -- -- 56
2018-03-24 04:00:00 13.9 42 Oeste 71 Oeste 0 -- -- 53
2018-03-24 03:00:00 13.4 14 Oeste 55 Sudoeste 0 -- -- 55
2018-03-24 02:00:00 14.3 34 Oeste 59 Oeste 0 -- -- 52
2018-03-24 01:00:00 14.4 41 Oeste 60 Oeste 0 -- -- 53
2018-03-24 00:00:00 13.8 26 Oeste 44 Sudoeste 0 -- -- 59
2018-03-23 23:00:00 12.5 3 Sudeste 14 Sudoeste 0 -- -- 63
2018-03-23 22:00:00 11.8 4 Oeste 25 Noroeste 0 -- -- 64
2018-03-23 21:00:00 11.8 23 Oeste 35 Noroeste 0 -- -- 63
2018-03-23 20:00:00 12.5 25 Noroeste 42 Noroeste 0 -- -- 60
2018-03-23 19:00:00 13.7 27 Oeste 57 Oeste 0 -- -- 55
2018-03-23 18:00:00 13.1 33 Oeste 50 Oeste 0 -- -- 56
2018-03-23 17:00:00 14.8 32 Oeste 60 Oeste 0 -- -- 52
2018-03-23 16:00:00 15.7 41 Oeste 60 Noroeste 0 -- -- 40
2018-03-23 15:00:00 16.3 39 Oeste 59 Oeste 0 -- -- 27
2018-03-23 14:00:00 15.8 32 Oeste 55 Oeste 0 -- -- 28
2018-03-23 13:00:00 15.7 32 Oeste 57 Oeste 0 -- -- 25
2018-03-23 12:00:00 16.9 35 Oeste 56 Oeste 0 -- -- 23
2018-03-23 11:00:00 15.5 27 Oeste 50 Sudoeste 0 -- -- 28
2018-03-23 10:00:00 12.2 27 Oeste 53 Oeste 0 -- -- 43
2018-03-23 09:00:00 10.6 43 Oeste 70 Oeste 0 -- -- 50
2018-03-23 08:00:00 9.3 33 Oeste 79 Oeste 0 -- -- 52
2018-03-23 07:00:00 9 50 Oeste 66 Oeste 0 -- -- 52
2018-03-23 06:00:00 8.7 44 Oeste 69 Oeste 0 -- -- 49
2018-03-23 05:00:00 8.9 50 Oeste 66 Oeste 0 -- -- 44
2018-03-23 04:00:00 9 36 Oeste 65 Oeste 0 -- -- 44
2018-03-23 03:00:00 9.3 49 Oeste 66 Oeste 0 -- -- 44
2018-03-23 02:00:00 9.3 44 Oeste 70 Oeste 0 -- -- 43
2018-03-23 01:00:00 8.9 19 Oeste 49 Oeste 0 -- -- 44
2018-03-23 00:00:00 9.1 35 Oeste 68 Oeste 0 -- -- 42